createdAt,value
2018-12-04T00:01:33.002Z,2.34
2018-12-04T00:04:42.528Z,2.41
2018-12-04T00:07:31.757Z,2.45
2018-12-04T00:10:20.982Z,2.49
2018-12-04T00:19:11.822Z,2.68
2018-12-04T00:22:21.167Z,2.79
2018-12-04T00:28:18.077Z,2.79
2018-12-04T00:30:59.693Z,2.69
2018-12-04T00:40:04.515Z,2.89
2018-12-04T00:45:45.000Z,2.84
2018-12-04T00:48:54.416Z,2.70
2018-12-04T00:52:03.933Z,2.77
2018-12-04T01:13:44.027Z,2.75
2018-12-04T01:19:36.601Z,2.89
2018-12-04T01:34:40.740Z,3.12
2018-12-04T01:37:50.312Z,3.14
2018-12-04T01:40:39.483Z,3.08
2018-12-04T01:43:23.788Z,2.78
2018-12-04T01:46:07.682Z,3.01
2018-12-04T01:48:57.035Z,2.98
2018-12-04T02:26:30.393Z,2.68
2018-12-04T02:29:14.894Z,2.74
2018-12-04T02:41:19.587Z,2.79
2018-12-04T03:05:55.324Z,3.23
2018-12-04T03:14:58.887Z,3.24
2018-12-04T03:52:10.775Z,3.36
2018-12-04T03:55:00.146Z,3.30
2018-12-04T03:58:09.667Z,3.26
2018-12-04T04:00:40.116Z,3.25
2018-12-04T04:03:10.517Z,3.14
2018-12-04T04:06:43.930Z,3.10
2018-12-04T04:09:13.585Z,3.07
2018-12-04T04:11:43.274Z,3.15
2018-12-04T04:14:12.946Z,3.10
2018-12-04T04:16:42.627Z,2.83
2018-12-04T04:19:12.283Z,2.91
2018-12-04T04:21:42.074Z,2.88
2018-12-04T04:24:12.533Z,2.82
2018-12-04T04:26:42.365Z,2.75
2018-12-04T04:29:11.980Z,2.69
2018-12-04T04:31:41.769Z,2.73
2018-12-04T04:34:11.615Z,2.81
2018-12-04T04:36:41.454Z,2.83
2018-12-04T04:39:11.071Z,2.75
2018-12-04T04:41:40.961Z,2.71
2018-12-04T04:44:10.653Z,2.78
2018-12-04T04:46:40.387Z,2.72
2018-12-04T04:49:09.997Z,2.73
2018-12-04T04:51:39.901Z,2.74
2018-12-04T04:54:09.365Z,2.64
2018-12-04T04:56:39.195Z,2.61
2018-12-04T04:59:08.852Z,2.61
2018-12-04T05:01:38.516Z,2.68
2018-12-04T05:04:08.351Z,2.66
2018-12-04T05:06:38.136Z,2.64
2018-12-04T05:09:08.553Z,2.68
2018-12-04T05:11:38.292Z,2.79
2018-12-04T05:14:08.412Z,2.84
2018-12-04T05:16:38.230Z,2.93
2018-12-04T05:19:07.914Z,2.97
2018-12-04T05:21:37.492Z,3.07
2018-12-04T05:24:07.134Z,3.06
2018-12-04T05:26:36.815Z,3.06
2018-12-04T05:29:06.529Z,2.98
2018-12-04T05:31:36.511Z,2.92
2018-12-04T05:34:06.148Z,2.97
2018-12-04T05:36:35.869Z,2.97
2018-12-04T05:39:07.957Z,3.05
2018-12-04T05:41:37.607Z,3.07
2018-12-04T05:44:07.170Z,3.01
2018-12-04T05:46:36.871Z,2.96
2018-12-04T05:49:06.681Z,2.94
2018-12-04T05:51:36.432Z,3.11
2018-12-04T05:54:08.723Z,3.31
2018-12-04T05:56:38.532Z,3.31
2018-12-04T05:59:08.312Z,3.17
2018-12-04T06:01:38.199Z,2.76
2018-12-04T06:04:07.899Z,2.94
2018-12-04T06:06:37.879Z,3.03
2018-12-04T06:09:08.465Z,3.03
2018-12-04T06:11:38.911Z,3.00
2018-12-04T06:14:08.677Z,2.94
2018-12-04T06:16:38.485Z,2.89
2018-12-04T06:19:08.887Z,3.03
2018-12-04T06:21:38.542Z,3.23
2018-12-04T06:24:08.401Z,3.28
2018-12-04T06:26:38.240Z,3.23
2018-12-04T06:29:07.906Z,3.29
2018-12-04T06:31:37.888Z,3.48
2018-12-04T06:34:07.561Z,3.51
2018-12-04T06:36:37.380Z,3.56
2018-12-04T06:39:08.640Z,3.53
2018-12-04T06:41:38.280Z,3.47
2018-12-04T06:44:08.078Z,3.45
2018-12-04T06:46:38.184Z,3.71
2018-12-04T06:49:07.996Z,3.62
2018-12-04T06:51:37.794Z,3.80
2018-12-04T06:54:07.505Z,3.71
2018-12-04T06:56:37.199Z,3.81
2018-12-04T06:59:06.947Z,3.98
2018-12-04T07:01:36.638Z,4.02
2018-12-04T07:04:06.510Z,4.15
2018-12-04T07:06:36.370Z,4.25
2018-12-04T07:09:08.584Z,4.24
2018-12-04T07:11:38.661Z,4.22
2018-12-04T07:14:08.398Z,4.33
2018-12-04T07:16:37.936Z,4.33
2018-12-04T07:19:07.850Z,4.52
2018-12-04T07:21:37.668Z,4.40
2018-12-04T07:24:08.183Z,4.48
2018-12-04T07:26:37.914Z,4.39
2018-12-04T07:29:07.502Z,4.47
2018-12-04T07:31:37.328Z,4.55
2018-12-04T07:34:07.470Z,4.90
2018-12-04T07:36:37.187Z,4.84
2018-12-04T07:39:08.559Z,4.87
2018-12-04T07:41:38.542Z,4.85
2018-12-04T07:44:08.347Z,4.83
2018-12-04T07:46:38.210Z,5.00
2018-12-04T07:49:08.063Z,5.01
2018-12-04T07:51:37.736Z,5.21
2018-12-04T07:54:07.745Z,5.36
2018-12-04T07:56:37.445Z,5.34
2018-12-04T07:59:07.145Z,5.27
2018-12-04T08:01:36.846Z,5.28
2018-12-04T08:04:06.747Z,5.33
2018-12-04T08:06:36.635Z,5.41
2018-12-04T08:09:10.005Z,5.54
2018-12-04T08:11:39.701Z,5.44
2018-12-04T08:14:09.356Z,5.52
2018-12-04T08:16:39.133Z,5.58
2018-12-04T08:19:08.868Z,5.63
2018-12-04T08:21:38.705Z,5.52
2018-12-04T08:24:08.306Z,5.68
2018-12-04T08:26:39.719Z,5.62
2018-12-04T08:32:31.166Z,6.15
2018-12-04T08:35:00.752Z,6.20
2018-12-04T08:37:30.371Z,6.52
2018-12-04T08:40:00.132Z,6.59
2018-12-04T08:42:30.718Z,6.78
2018-12-04T08:45:00.431Z,6.88
2018-12-04T08:47:30.122Z,7.06
2018-12-04T08:50:00.560Z,7.32
2018-12-04T08:52:30.245Z,7.36
2018-12-04T08:55:00.314Z,7.48
2018-12-04T08:57:29.979Z,7.91
2018-12-04T08:59:59.480Z,7.72
2018-12-04T09:02:29.126Z,7.80
2018-12-04T09:04:58.777Z,8.02
2018-12-04T09:07:28.505Z,8.47
2018-12-04T09:09:58.315Z,8.39
2018-12-04T09:12:27.878Z,8.55
2018-12-04T09:14:57.586Z,8.85
2018-12-04T09:17:27.673Z,8.84
2018-12-04T09:19:57.355Z,8.99
2018-12-04T09:22:27.244Z,9.03
2018-12-04T09:24:57.053Z,8.73
2018-12-04T09:27:26.733Z,8.68
2018-12-04T09:29:56.363Z,8.90
2018-12-04T09:32:26.209Z,9.16
2018-12-04T09:34:55.858Z,8.97
2018-12-04T09:37:25.569Z,9.32
2018-12-04T09:39:55.252Z,9.38
2018-12-04T09:42:24.925Z,9.52
2018-12-04T09:44:54.554Z,9.67
2018-12-04T09:47:23.990Z,9.93
2018-12-04T09:49:53.636Z,9.73
2018-12-04T09:52:23.350Z,9.53
2018-12-04T09:54:53.077Z,9.14
2018-12-04T09:57:22.695Z,9.41
2018-12-04T09:59:52.255Z,9.25
2018-12-04T10:02:21.865Z,8.75
2018-12-04T10:04:51.572Z,9.05
2018-12-04T10:07:21.155Z,9.47
2018-12-04T10:09:50.966Z,9.28
2018-12-04T10:12:21.261Z,9.52
2018-12-04T10:14:50.983Z,9.99
2018-12-04T10:17:22.301Z,9.91
2018-12-04T10:19:51.895Z,9.83
2018-12-04T10:22:22.388Z,9.91
2018-12-04T10:24:51.918Z,10.85
2018-12-04T10:27:21.812Z,11.18
2018-12-04T10:29:51.562Z,11.09
2018-12-04T10:32:21.232Z,10.88
2018-12-04T10:34:50.868Z,10.88
2018-12-04T10:37:20.328Z,11.06
2018-12-04T10:39:49.983Z,11.04
2018-12-04T10:42:19.629Z,11.43
2018-12-04T10:44:49.523Z,11.54
2018-12-04T10:47:19.085Z,12.20
2018-12-04T10:49:48.704Z,12.01
2018-12-04T10:52:18.331Z,11.90
2018-12-04T10:54:48.066Z,11.15
2018-12-04T10:57:17.556Z,10.74
2018-12-04T10:59:47.138Z,10.96
2018-12-04T11:02:21.740Z,11.00
2018-12-04T11:04:51.538Z,11.50
2018-12-04T11:07:21.191Z,11.36
2018-12-04T11:09:50.813Z,11.08
2018-12-04T11:12:20.393Z,11.57
2018-12-04T11:14:50.103Z,11.91
2018-12-04T11:17:19.825Z,12.06
2018-12-04T11:19:49.606Z,11.44
2018-12-04T11:22:19.223Z,11.50
2018-12-04T11:24:48.919Z,11.37
2018-12-04T11:27:18.646Z,11.75
2018-12-04T11:29:48.236Z,11.95
2018-12-04T11:32:17.850Z,11.87
2018-12-04T11:34:47.425Z,11.24
2018-12-04T11:37:17.001Z,11.30
2018-12-04T11:39:46.519Z,10.94
2018-12-04T11:42:16.697Z,10.71
2018-12-04T11:44:46.441Z,10.56
2018-12-04T11:47:16.630Z,10.71
2018-12-04T11:49:46.193Z,11.05
2018-12-04T11:52:15.921Z,11.27
2018-12-04T11:54:45.465Z,11.30
2018-12-04T11:57:15.284Z,11.42
2018-12-04T11:59:45.018Z,11.32
2018-12-04T12:07:20.632Z,11.40
2018-12-04T12:09:49.741Z,11.53
2018-12-04T12:12:19.387Z,11.66
2018-12-04T12:14:49.275Z,11.63
2018-12-04T12:17:18.905Z,11.53
2018-12-04T12:19:49.105Z,11.45
2018-12-04T12:22:19.048Z,11.54
2018-12-04T12:24:48.720Z,11.29
2018-12-04T12:27:18.437Z,10.78
2018-12-04T12:29:48.059Z,10.87
2018-12-04T12:32:17.597Z,10.80
2018-12-04T12:34:47.281Z,10.80
2018-12-04T12:37:16.850Z,10.86
2018-12-04T12:39:46.484Z,10.78
2018-12-04T12:42:16.486Z,11.02
2018-12-04T12:44:46.254Z,10.46
2018-12-04T12:47:15.847Z,10.15
2018-12-04T12:49:45.882Z,10.08
2018-12-04T12:52:15.627Z,10.29
2018-12-04T12:54:45.219Z,10.14
2018-12-04T12:57:14.801Z,10.13
2018-12-04T12:59:44.582Z,10.26
2018-12-04T13:02:14.297Z,9.99
2018-12-04T13:04:43.918Z,9.96
2018-12-04T13:07:14.193Z,9.96
2018-12-04T13:09:43.714Z,10.09
2018-12-04T13:12:13.386Z,10.04
2018-12-04T13:14:42.929Z,10.16
2018-12-04T13:17:12.468Z,10.10
2018-12-04T13:19:42.032Z,10.02
2018-12-04T13:22:11.699Z,9.90
2018-12-04T13:24:41.643Z,8.36
2018-12-04T13:27:11.219Z,9.78
2018-12-04T13:29:40.833Z,10.15
2018-12-04T13:32:10.520Z,10.08
2018-12-04T13:34:41.119Z,10.28
2018-12-04T13:37:10.721Z,10.22
2018-12-04T13:39:40.815Z,10.20
2018-12-04T13:42:11.894Z,10.09
2018-12-04T13:44:41.651Z,9.99
2018-12-04T13:47:11.733Z,9.94
2018-12-04T13:49:41.527Z,9.80
2018-12-04T13:52:12.884Z,9.79
2018-12-04T13:54:42.902Z,9.97
2018-12-04T13:57:12.640Z,9.81
2018-12-04T13:59:42.574Z,9.75
2018-12-04T14:02:12.387Z,9.68
2018-12-04T14:04:41.986Z,9.61
2018-12-04T14:07:11.734Z,9.60
2018-12-04T14:09:41.448Z,9.60
2018-12-04T14:12:11.077Z,9.60
2018-12-04T14:14:40.718Z,9.46
2018-12-04T14:17:10.293Z,9.53
2018-12-04T14:19:40.050Z,9.44
2018-12-04T14:22:09.645Z,9.14
2018-12-04T14:24:39.279Z,9.38
2018-12-04T14:27:08.994Z,9.33
2018-12-04T14:29:37.984Z,9.35
2018-12-04T14:32:07.868Z,9.35
2018-12-04T14:34:37.386Z,3.30
2018-12-04T14:37:07.034Z,9.32
2018-12-04T14:39:36.653Z,9.16
2018-12-04T14:42:06.293Z,9.21
2018-12-04T14:44:36.157Z,9.30
2018-12-04T14:47:05.874Z,9.24
2018-12-04T14:49:35.585Z,9.13
2018-12-04T14:52:05.431Z,9.06
2018-12-04T14:54:35.271Z,9.13
2018-12-04T14:57:05.019Z,8.60
2018-12-04T14:59:34.717Z,9.27
2018-12-04T15:02:04.512Z,9.38
2018-12-04T15:04:34.028Z,9.22
2018-12-04T15:07:03.839Z,9.18
2018-12-04T15:09:33.772Z,9.09
2018-12-04T15:12:10.718Z,9.13
2018-12-04T15:14:40.136Z,9.04
2018-12-04T15:17:09.999Z,9.02
2018-12-04T15:19:39.788Z,8.95
2018-12-04T15:22:09.550Z,9.00
2018-12-04T15:24:39.287Z,9.00
2018-12-04T15:27:09.203Z,8.97
2018-12-04T15:29:38.942Z,8.85
2018-12-04T15:32:08.532Z,9.02
2018-12-04T15:34:38.029Z,9.03
2018-12-04T15:37:07.523Z,9.17
2018-12-04T15:39:37.087Z,9.13
2018-12-04T15:42:06.737Z,9.00
2018-12-04T15:44:36.419Z,8.97
2018-12-04T15:47:06.191Z,8.86
2018-12-04T15:49:35.906Z,8.93
2018-12-04T15:52:05.567Z,8.85
2018-12-04T15:54:35.217Z,8.83
2018-12-04T15:57:05.055Z,8.83
2018-12-04T15:59:34.802Z,8.73
2018-12-04T16:02:04.549Z,8.76
2018-12-04T16:04:34.097Z,8.80
2018-12-04T16:07:03.843Z,8.79
2018-12-04T16:09:33.365Z,8.80
2018-12-04T16:12:03.574Z,8.80
2018-12-04T16:14:33.231Z,8.68
2018-12-04T16:17:02.918Z,8.64
2018-12-04T16:19:32.775Z,8.65
2018-12-04T16:22:02.404Z,8.67
2018-12-04T16:24:32.103Z,8.70
2018-12-04T16:27:01.703Z,8.65
2018-12-04T16:29:31.215Z,8.73
2018-12-04T16:32:01.098Z,8.71
2018-12-04T16:34:30.788Z,8.72
2018-12-04T16:37:00.282Z,8.61
2018-12-04T16:39:29.744Z,8.66
2018-12-04T16:41:59.427Z,8.71
2018-12-04T16:44:29.187Z,8.75
2018-12-04T16:46:58.947Z,8.78
2018-12-04T16:49:28.679Z,8.74
2018-12-04T16:51:58.231Z,8.74
2018-12-04T16:54:27.894Z,8.71
2018-12-04T16:57:28.194Z,8.66
2018-12-04T16:59:57.874Z,8.69
2018-12-04T17:02:27.566Z,8.69
2018-12-04T17:04:57.439Z,8.62
2018-12-04T17:07:27.086Z,8.73
2018-12-04T17:09:56.665Z,8.81
2018-12-04T17:12:26.298Z,8.75
2018-12-04T17:14:55.711Z,8.67
2018-12-04T17:17:25.792Z,8.63
2018-12-04T17:19:55.742Z,8.53
2018-12-04T17:22:25.254Z,8.50
2018-12-04T17:24:55.258Z,8.39
2018-12-04T17:27:24.934Z,8.40
2018-12-04T17:29:54.560Z,8.29
2018-12-04T17:32:24.212Z,8.30
2018-12-04T17:34:54.014Z,8.18
2018-12-04T17:37:23.736Z,8.39
2018-12-04T17:39:54.158Z,8.35
2018-12-04T17:42:23.804Z,8.33
2018-12-04T17:44:53.466Z,8.42
2018-12-04T17:47:23.114Z,8.06
2018-12-04T17:49:52.781Z,7.58
2018-12-04T17:52:22.454Z,7.44
2018-12-04T17:54:52.182Z,7.60
2018-12-04T17:57:21.937Z,7.40
2018-12-04T17:59:52.542Z,7.73
2018-12-04T18:02:22.138Z,7.71
2018-12-04T18:04:51.910Z,7.55
2018-12-04T18:07:21.607Z,7.55
2018-12-04T18:09:51.061Z,7.33
2018-12-04T18:12:20.732Z,7.37
2018-12-04T18:14:50.452Z,7.46
2018-12-04T18:17:20.869Z,7.34
2018-12-04T18:19:50.491Z,7.40
2018-12-04T18:22:20.498Z,7.31
2018-12-04T18:24:50.550Z,7.25
2018-12-04T18:27:20.220Z,7.23
2018-12-04T18:29:49.739Z,7.26
2018-12-04T18:32:19.424Z,7.24
2018-12-04T18:34:49.043Z,7.19
2018-12-04T18:37:18.842Z,7.30
2018-12-04T18:39:48.526Z,7.15
2018-12-04T18:42:18.048Z,7.27
2018-12-04T18:44:47.778Z,7.28
2018-12-04T18:47:17.368Z,7.37
2018-12-04T18:49:47.030Z,7.46
2018-12-04T18:52:16.570Z,7.25
2018-12-04T18:54:46.802Z,7.60
2018-12-04T18:57:16.385Z,7.60
2018-12-04T18:59:46.099Z,7.68
2018-12-04T19:02:15.881Z,7.73
2018-12-04T19:04:45.598Z,7.69
2018-12-04T19:07:15.287Z,7.64
2018-12-04T19:09:46.107Z,7.59
2018-12-04T19:12:15.688Z,7.68
2018-12-04T19:14:45.399Z,7.75
2018-12-04T19:17:15.027Z,7.69
2018-12-04T19:19:44.859Z,7.69
2018-12-04T19:22:14.565Z,7.68
2018-12-04T19:24:44.170Z,7.61
2018-12-04T19:27:13.754Z,7.64
2018-12-04T19:29:43.427Z,7.62
2018-12-04T19:32:13.073Z,7.91
2018-12-04T19:34:42.838Z,7.89
2018-12-04T19:37:12.536Z,7.74
2018-12-04T19:39:42.204Z,7.70
2018-12-04T19:42:12.014Z,7.62
2018-12-04T19:44:41.847Z,7.60
2018-12-04T19:47:11.471Z,7.43
2018-12-04T19:49:41.437Z,7.39
2018-12-04T19:52:11.461Z,7.10
2018-12-04T19:54:41.129Z,6.88
2018-12-04T19:57:10.901Z,6.81
2018-12-04T19:59:40.518Z,5.26
2018-12-04T20:02:10.264Z,6.72
2018-12-04T20:04:39.796Z,6.79
2018-12-04T20:07:09.247Z,6.81
2018-12-04T20:09:38.879Z,6.82
2018-12-04T20:12:08.708Z,6.89
2018-12-04T20:14:38.757Z,6.84
2018-12-04T20:17:08.362Z,6.89
2018-12-04T20:19:38.477Z,6.87
2018-12-04T20:22:08.050Z,6.90
2018-12-04T20:24:37.654Z,6.95
2018-12-04T20:27:07.245Z,6.97
2018-12-04T20:29:36.806Z,6.92
2018-12-04T20:35:27.798Z,6.90
2018-12-04T20:37:57.608Z,6.89
2018-12-04T20:43:42.268Z,6.83
2018-12-04T20:46:12.241Z,6.87
2018-12-04T20:48:42.212Z,6.83
2018-12-04T20:51:12.068Z,6.83
2018-12-04T20:53:41.989Z,6.73
2018-12-04T20:56:11.733Z,6.81
2018-12-04T20:58:41.437Z,6.89
2018-12-04T21:01:11.459Z,6.94
2018-12-04T21:03:41.464Z,6.81
2018-12-04T21:06:11.625Z,6.85
2018-12-04T21:08:41.399Z,6.93
2018-12-04T21:11:11.370Z,7.07
2018-12-04T21:13:41.155Z,7.10
2018-12-04T21:16:10.881Z,7.12
2018-12-04T21:18:40.794Z,7.18
2018-12-04T21:21:10.419Z,7.17
2018-12-04T21:23:40.106Z,7.10
2018-12-04T21:26:09.858Z,7.08
2018-12-04T21:28:41.800Z,7.18
2018-12-04T21:31:16.524Z,7.23
2018-12-04T21:33:51.164Z,7.23
2018-12-04T21:36:25.903Z,7.24
2018-12-04T21:39:04.815Z,7.26
2018-12-04T21:41:39.544Z,7.24
2018-12-04T21:45:14.362Z,7.26
2018-12-04T21:47:49.130Z,7.23
2018-12-04T21:50:18.826Z,7.20
2018-12-04T21:52:48.578Z,7.32
2018-12-04T21:55:18.268Z,7.30
2018-12-04T21:57:47.962Z,7.35
2018-12-04T22:00:19.637Z,7.19
2018-12-04T22:02:49.436Z,7.20
2018-12-04T22:05:19.060Z,7.17
2018-12-04T22:07:48.837Z,7.18
2018-12-04T22:10:18.601Z,7.10
2018-12-04T22:12:48.417Z,7.12
2018-12-04T22:15:18.457Z,7.21
2018-12-04T22:17:48.325Z,7.35
2018-12-04T22:20:18.116Z,7.40
2018-12-04T22:22:47.954Z,7.35
2018-12-04T22:25:17.851Z,7.46
2018-12-04T22:27:47.834Z,7.48
2018-12-04T22:30:17.488Z,7.38
2018-12-04T22:32:47.169Z,7.20
2018-12-04T22:35:16.935Z,7.18
2018-12-04T22:37:46.864Z,7.11
2018-12-04T22:40:16.596Z,7.29
2018-12-04T22:42:46.306Z,7.11
2018-12-04T22:45:21.208Z,7.29
2018-12-04T22:47:50.911Z,7.21
2018-12-04T22:50:20.637Z,7.03
2018-12-04T22:52:50.605Z,7.04
2018-12-04T22:55:20.409Z,7.39
2018-12-04T22:57:50.198Z,7.17
2018-12-04T23:00:37.422Z,7.04
2018-12-04T23:03:07.266Z,7.20
2018-12-04T23:05:36.972Z,7.12
2018-12-04T23:08:07.230Z,7.23
2018-12-04T23:10:36.886Z,7.20
2018-12-04T23:13:06.811Z,7.34
2018-12-04T23:15:36.582Z,7.26
2018-12-04T23:18:07.418Z,7.27
2018-12-04T23:20:37.393Z,7.19
2018-12-04T23:23:07.137Z,7.28
2018-12-04T23:25:36.656Z,7.40
2018-12-04T23:28:06.672Z,7.43
2018-12-04T23:30:36.416Z,7.49
2018-12-04T23:33:06.142Z,7.47
2018-12-04T23:35:36.158Z,7.58
2018-12-04T23:38:05.894Z,7.63
2018-12-04T23:40:35.803Z,7.64
2018-12-04T23:43:05.576Z,7.50
2018-12-04T23:45:35.882Z,7.74
2018-12-04T23:48:05.824Z,7.70
2018-12-04T23:50:35.724Z,7.66
2018-12-04T23:53:05.712Z,7.66
2018-12-04T23:55:35.772Z,7.74
2018-12-04T23:58:05.703Z,7.81
